Latest Weather Observations for Forrest

IDW60801

Issued at 2:33 pm WST Saturday 10 December 2016 (issued every 30 minutes, with the page automatically refreshed every 10 minutes)

About weather observations | Map of weather stations | Latest weather observations for WA | Other Formats
Station Details ID: 011052 Name: FORREST Lat: -30.85 Lon: 128.11 Height: 159.0 m
Data from the previous 72 hours. | See also: Recent months at Forrest
Date/Time
WST
Temp
°C
App
Temp
°C
Dew
Point
°C
Rel
Hum
%
Delta-T
°C
Wind Press
QNH
hPa
Press
MSL
hPa
Rain since
9am
mm
Dir  Spd
km/h
Gust
km/h
Spd
kts
Gust
kts
10/02:30pm 33.2 28.4 -2.5 10 16.8 ENE 13 28 7 15 1016.2 - 0.0
10/02:00pm 33.6 27.5 -2.2 10 17.0 E 20 28 11 15 1016.6 - 0.0
10/01:30pm 32.4 26.9 -1.8 11 16.2 ENE 17 26 9 14 1016.9 - 0.0
10/01:00pm 32.3 26.4 -0.7 12 15.9 ENE 20 26 11 14 1017.3 - 0.0
10/12:30pm 32.2 27.3 -0.8 12 15.9 NNE 15 26 8 14 1017.8 - 0.0
10/12:00pm 31.4 27.4 0.7 14 15.1 ENE 11 19 6 10 1018.1 1017.5 0.0
10/11:30am 30.9 27.0 1.3 15 14.6 ENE 11 26 6 14 1018.7 - 0.0
10/11:00am 30.4 25.8 1.8 16 14.2 ENE 15 30 8 16 1019.1 - 0.0
10/10:30am 29.4 24.2 2.6 18 13.4 NE 19 32 10 17 1019.6 - 0.0
10/10:00am 29.0 23.7 3.1 19 13.1 NNE 20 28 11 15 1020.1 - 0.0
10/09:30am 27.7 22.8 5.3 24 11.6 ENE 20 30 11 16 1020.3 - 0.0
10/09:00am 26.9 21.1 6.3 27 10.8 ENE 26 35 14 19 1020.6 1019.9 0.0
10/08:30am 25.2 20.1 7.8 33 9.3 ENE 24 30 13 16 1020.8 - 0.0
10/08:00am 23.0 18.6 9.0 41 7.6 ENE 22 30 12 16 1021.1 - 0.0
10/07:30am 21.5 18.3 10.0 48 6.3 ENE 17 24 9 13 1021.2 - 0.0
10/07:00am 19.0 15.4 10.0 56 4.8 ENE 19 24 10 13 1021.4 - 0.0
10/06:30am 17.4 13.8 10.5 64 3.7 ENE 20 26 11 14 1021.4 - 0.0
10/06:00am 15.4 10.9 10.0 70 2.8 ENE 24 28 13 15 1021.4 1020.7 0.0
10/05:30am 14.3 9.9 10.3 77 2.1 E 24 33 13 18 1021.2 - 0.0
10/05:00am 12.8 9.7 10.2 84 1.4 E 17 22 9 12 1020.9 - 0.0
10/04:30am 11.9 9.0 9.8 87 1.1 E 15 17 8 9 1020.6 - 0.0
10/04:00am 11.8 8.9 9.7 87 1.1 E 15 19 8 10 1020.3 - 0.0
10/03:30am 12.0 9.1 9.7 86 1.2 E 15 19 8 10 1020.0 - 0.0
10/03:00am 12.1 9.6 9.7 85 1.2 E 13 17 7 9 1019.7 1019.0 0.0
10/02:30am 12.4 9.5 9.6 83 1.4 E 15 19 8 10 1019.6 - 0.0
10/02:00am 12.6 9.6 9.4 81 1.6 E 15 17 8 9 1019.7 - 0.0
10/01:30am 12.9 10.0 9.5 80 1.7 ESE 15 17 8 9 1019.6 - 0.0
10/01:00am 13.3 10.4 9.5 78 2.0 ESE 15 19 8 10 1019.8 - 0.0
10/12:30am 13.7 10.8 9.6 76 2.1 ESE 15 17 8 9 1019.7 - 0.0
10/12:00am 14.0 11.1 9.6 75 2.3 ESE 15 19 8 10 1019.8 1019.1 0.0
 
Date/Time
WST
Temp
°C
App
Temp
°C
Dew
Point
°C
Rel
Hum
%
Delta-T
°C
Wind Press
QNH
hPa
Press
MSL
hPa
Rain since
9am
mm
Dir  Spd
km/h
Gust
km/h
Spd
kts
Gust
kts
09/11:30pm 14.5 11.6 9.7 73 2.5 ESE 15 19 8 10 1020.1 - 0.0
09/11:00pm 15.0 12.5 9.6 70 2.8 ESE 13 17 7 9 1020.4 - 0.0
09/10:30pm 15.5 12.2 9.6 68 3.1 E 17 20 9 11 1020.4 - 0.0
09/10:00pm 16.0 11.7 9.4 65 3.4 ESE 22 28 12 15 1020.5 - 0.0
09/09:30pm 16.6 11.9 9.3 62 3.8 ESE 24 32 13 17 1020.5 - 0.0
09/09:00pm 17.2 12.5 9.1 59 4.2 ESE 24 32 13 17 1020.2 1019.5 0.0
09/08:30pm 17.7 12.2 9.1 57 4.5 ESE 28 35 15 19 1019.9 - 0.0
09/08:00pm 18.5 13.0 9.0 54 5.0 ESE 28 35 15 19 1019.5 - 0.0
09/07:30pm 19.5 13.6 9.1 51 5.5 ESE 30 37 16 20 1019.3 - 0.0
09/07:00pm 20.7 14.5 9.3 48 6.1 ESE 32 39 17 21 1018.9 - 0.0
09/06:30pm 22.1 15.6 8.9 43 7.1 ESE 33 46 18 25 1018.3 - 0.0
09/06:00pm 24.0 16.4 7.6 35 8.7 SE 37 50 20 27 1018.0 1017.4 0.0
09/05:39pm 25.7 17.3 7.3 31 9.8 SE 41 48 22 26 1017.6 - 0.0
09/05:30pm 27.5 22.0 1.8 19 12.5 ESE 20 28 11 15 1017.5 - 0.0
09/05:00pm 28.1 22.7 2.3 19 12.7 ESE 20 32 11 17 1017.3 - 0.0
09/04:30pm 28.4 23.2 3.3 20 12.6 E 20 32 11 17 1017.1 - 0.0
09/04:00pm 28.3 22.9 2.5 19 12.8 E 20 28 11 15 1017.2 - 0.0
09/03:30pm 28.5 23.8 3.4 20 12.7 ENE 17 32 9 17 1017.4 - 0.0
09/03:00pm 28.3 24.1 3.9 21 12.4 ENE 15 24 8 13 1017.8 1017.2 0.0
09/02:30pm 27.4 22.8 3.8 22 11.9 E 17 26 9 14 1018.0 - 0.0
09/02:00pm 27.3 23.1 3.7 22 11.9 E 15 26 8 14 1018.4 - 0.0
09/01:30pm 27.0 22.4 3.5 22 11.8 E 17 32 9 17 1018.9 - 0.0
09/01:00pm 26.6 22.9 4.4 24 11.3 ESE 13 20 7 11 1019.1 - 0.0
09/12:30pm 25.6 21.3 3.5 24 11.0 E 15 28 8 15 1019.4 - 0.0
09/12:00pm 24.4 20.7 4.7 28 9.9 NE 13 26 7 14 1019.7 1019.0 0.0
09/11:30am 24.2 19.3 5.1 29 9.7 ESE 20 30 11 16 1020.3 - 0.0
09/11:00am 23.1 18.3 5.5 32 8.9 ENE 20 32 11 17 1020.8 - 0.0
09/10:30am 22.1 17.3 5.5 34 8.4 E 20 33 11 18 1021.3 - 0.0
09/10:00am 21.6 17.6 6.7 38 7.6 E 17 30 9 16 1021.8 - 0.0
09/09:30am 21.1 17.2 7.3 41 7.1 E 17 28 9 15 1022.0 - 0.0
09/09:00am 19.8 16.3 7.2 44 6.4 ENE 15 30 8 16 1022.3 1021.7 0.0
09/08:30am 19.9 15.7 7.6 45 6.4 E 19 26 10 14 1022.5 - 0.0
09/08:00am 18.2 14.0 7.6 50 5.4 ENE 19 28 10 15 1022.7 - 0.0
09/07:30am 17.6 12.6 8.2 54 4.8 ENE 24 32 13 17 1022.6 - 0.0
09/07:00am 17.2 12.1 7.8 54 4.8 ENE 24 32 13 17 1022.6 - 0.0
09/06:30am 16.6 11.6 8.1 57 4.3 E 24 28 13 15 1022.7 - 0.0
09/06:00am 15.8 12.6 8.5 62 3.7 ENE 15 19 8 10 1022.9 1022.3 0.0
09/05:30am 13.7 11.3 8.5 71 2.6 ESE 11 15 6 8 1022.5 - 0.0
09/05:00am 12.0 9.4 7.9 76 2.0 ESE 11 13 6 7 1022.1 - 0.0
09/04:30am 11.1 7.7 7.8 80 1.6 ESE 15 15 8 8 1021.9 - 0.0
09/04:00am 10.9 7.9 7.6 80 1.6 ESE 13 15 7 8 1021.7 - 0.0
09/03:30am 10.7 8.4 7.4 80 1.6 ESE 9 11 5 6 1021.7 - 0.0
09/03:00am 11.3 8.6 7.4 77 1.9 ESE 11 13 6 7 1021.5 1020.8 0.0
09/02:30am 11.8 8.8 7.5 75 2.1 ESE 13 15 7 8 1021.3 - 0.0
09/02:00am 12.1 9.1 7.6 74 2.2 ESE 13 15 7 8 1021.2 - 0.0
09/01:30am 12.7 9.4 8.0 73 2.3 ESE 15 17 8 9 1021.1 - 0.0
09/01:00am 12.5 9.6 8.0 74 2.2 ESE 13 13 7 7 1021.1 - 0.0
09/12:30am 12.9 9.9 7.8 71 2.5 ESE 13 15 7 8 1021.2 - 0.0
09/12:00am 13.9 10.6 8.1 68 2.9 ESE 15 19 8 10 1021.5 1020.8 0.0
 
Date/Time
WST
Temp
°C
App
Temp
°C
Dew
Point
°C
Rel
Hum
%
Delta-T
°C
Wind Press
QNH
hPa
Press
MSL
hPa
Rain since
9am
mm
Dir  Spd
km/h
Gust
km/h
Spd
kts
Gust
kts
08/11:30pm 14.2 10.5 7.9 66 3.2 ESE 17 22 9 12 1021.6 - 0.0
08/11:00pm 14.5 9.9 8.0 65 3.3 SE 22 28 12 15 1021.8 - 0.0
08/10:30pm 14.6 11.0 8.3 66 3.2 SE 17 20 9 11 1022.0 - 0.0
08/10:00pm 15.0 10.9 8.0 63 3.5 SE 19 26 10 14 1022.2 - 0.0
08/09:30pm 15.4 10.8 8.2 62 3.7 SE 22 30 12 16 1022.2 - 0.0
08/09:00pm 15.7 11.5 8.4 62 3.7 SE 20 28 11 15 1022.1 1021.5 0.0
08/08:30pm 16.0 11.9 8.5 61 3.8 SE 20 28 11 15 1021.9 - 0.0
08/08:00pm 16.5 10.8 8.5 59 4.1 SE 28 37 15 20 1021.7 - 0.0
08/07:30pm 16.8 10.5 9.0 60 4.1 SE 32 43 17 23 1021.4 - 0.0
08/07:00pm 17.5 11.5 8.6 56 4.6 SE 30 41 16 22 1020.9 - 0.0
08/06:30pm 18.5 12.4 8.2 51 5.3 SSE 30 39 16 21 1020.3 - 0.0
08/06:00pm 19.7 12.9 7.8 46 6.1 SSE 33 41 18 22 1019.7 1019.0 0.0
08/05:30pm 21.4 15.1 5.7 36 7.9 SSE 28 39 15 21 1019.3 - 0.0
08/05:00pm 22.4 17.1 4.9 32 8.7 S 22 33 12 18 1018.9 - 0.0
08/04:30pm 23.4 16.9 4.9 30 9.3 S 28 37 15 20 1018.4 - 0.0
08/04:00pm 24.2 18.1 4.6 28 9.8 SSE 26 39 14 21 1018.0 - 0.0
08/03:30pm 24.1 18.4 5.0 29 9.7 SSE 24 39 13 21 1017.8 - 0.0
08/03:00pm 24.5 19.5 4.8 28 9.9 SSE 20 35 11 19 1017.8 1017.2 0.0
08/02:30pm 25.1 20.3 5.8 29 10.0 S 20 32 11 17 1017.8 - 0.0
08/02:00pm 24.2 19.1 6.0 31 9.4 S 22 32 12 17 1017.9 - 0.0
08/01:30pm 24.1 19.4 5.9 31 9.3 SE 20 32 11 17 1018.0 - 0.0
08/01:00pm 24.1 19.7 6.4 32 9.2 S 19 32 10 17 1018.1 - 0.0
08/12:30pm 23.5 18.4 5.9 32 9.0 S 22 33 12 18 1018.5 - 0.0
08/12:00pm 23.7 20.1 5.1 30 9.4 SE 13 30 7 16 1018.7 1018.0 0.0
08/11:30am 22.4 18.8 4.9 32 8.7 SSE 13 32 7 17 1019.1 - 0.0
08/11:00am 22.1 17.5 5.5 34 8.4 SSW 19 24 10 13 1019.7 - 0.0
08/10:30am 21.1 15.9 7.3 41 7.1 S 24 37 13 20 1020.0 - 0.0
08/10:00am 20.6 16.1 6.9 41 7.0 S 20 28 11 15 1020.1 - 0.0
08/09:30am 20.3 15.1 7.3 43 6.7 SSE 24 39 13 21 1020.2 - 0.0
08/09:00am 19.5 15.3 7.6 46 6.1 SSE 19 32 10 17 1020.3 1019.6 0.0
08/08:30am 18.3 13.9 7.4 49 5.6 S 20 33 11 18 1020.5 - 0.0
08/08:00am 17.4 13.6 7.5 52 5.0 S 17 28 9 15 1020.5 - 0.0
08/07:30am 16.7 12.8 8.7 59 4.1 S 19 26 10 14 1020.5 - 0.0
08/07:00am 16.3 12.2 8.8 61 3.9 SSW 20 28 11 15 1020.2 - 0.0
08/06:30am 16.0 12.0 8.2 60 4.0 SW 19 30 10 16 1019.9 - 0.0
08/06:00am 15.7 12.8 8.2 61 3.8 SW 13 19 7 10 1019.7 1019.0 0.0
08/05:30am 13.8 10.9 8.0 68 2.9 SW 13 15 7 8 1019.3 - 0.0
08/05:00am 12.0 9.0 7.5 74 2.2 SSW 13 15 7 8 1019.0 - 0.0
08/04:30am 11.3 8.6 7.2 76 2.0 SSW 11 15 6 8 1018.6 - 0.0
08/04:00am 12.1 9.4 7.2 72 2.4 SSW 11 13 6 7 1018.3 - 0.0
08/03:30am 13.6 10.6 7.6 67 3.0 SSW 13 17 7 9 1017.7 - 0.0
08/03:00am 13.6 10.6 7.8 68 2.9 SSW 13 17 7 9 1017.7 1017.1 0.0
08/02:30am 13.2 11.3 7.6 69 2.8 SSW 7 9 4 5 1017.6 - 0.0
08/02:00am 13.3 10.3 7.5 68 2.9 SSW 13 17 7 9 1017.4 - 0.0
08/01:30am 13.9 10.5 7.7 66 3.1 S 15 20 8 11 1017.0 - 0.0
08/01:00am 13.9 11.0 8.3 69 2.8 S 13 19 7 10 1016.7 - 0.0
08/12:30am 14.1 10.1 8.1 67 3.0 S 19 26 10 14 1016.4 - 0.0
08/12:00am 14.6 8.9 8.3 66 3.2 SSW 28 35 15 19 1016.2 1015.5 0.0
 
Date/Time
WST
Temp
°C
App
Temp
°C
Dew
Point
°C
Rel
Hum
%
Delta-T
°C
Wind Press
QNH
hPa
Press
MSL
hPa
Rain since
9am
mm
Dir  Spd
km/h
Gust
km/h
Spd
kts
Gust
kts
07/11:30pm 14.8 8.8 8.7 67 3.1 S 30 41 16 22 1016.1 - 0.0
07/11:00pm 15.1 8.1 8.6 65 3.3 S 35 48 19 26 1016.0 - 0.0
07/10:30pm 15.3 8.9 8.5 64 3.5 S 32 39 17 21 1015.9 - 0.0
07/10:00pm 15.4 9.4 8.6 64 3.5 S 30 37 16 20 1015.8 - 0.0
07/09:30pm 15.7 9.6 8.4 62 3.7 S 30 41 16 22 1015.6 - 0.0
07/09:00pm 16.1 8.9 7.8 58 4.2 S 35 44 19 24 1015.1 1014.4 0.0
07/08:36pm 16.6 8.2 7.5 55 4.6 SSW 41 59 22 32 1014.4 - 0.0
07/08:30pm 16.7 8.3 7.4 54 4.7 SSW 41 56 22 30 1014.4 - 0.0
07/08:00pm 17.3 10.2 7.9 54 4.8 S 35 50 19 27 1013.6 - 0.0
07/07:41pm 18.0 10.5 6.5 47 5.7 S 35 63 19 34 1013.4 - 0.0
07/07:30pm 18.1 10.7 9.7 58 4.5 SSW 39 52 21 28 1013.1 - 0.0
07/07:00pm 18.7 10.5 10.5 59 4.4 S 44 59 24 32 1012.3 - 0.0
07/06:30pm 19.5 11.0 10.8 57 4.8 S 46 67 25 36 1011.3 - 0.0
07/06:02pm 20.4 11.2 10.8 54 5.3 SSW 50 72 27 39 1010.0 - 0.0
07/06:00pm 20.7 11.5 10.8 53 5.5 SSW 50 65 27 35 1010.0 1009.3 0.0
07/05:30pm 22.2 11.9 11.0 49 6.2 SSW 56 76 30 41 1009.2 - 0.0
07/05:00pm 23.1 12.8 11.8 49 6.4 SSW 57 78 31 42 1008.1 - 0.0
07/04:30pm 24.4 13.8 10.7 42 7.7 SSW 57 78 31 42 1007.2 - 0.0
07/04:00pm 25.6 13.2 9.8 37 8.8 SSW 65 85 35 46 1006.5 - 0.0
07/03:41pm 26.0 13.9 9.4 35 9.2 SSW 63 82 34 44 1006.1 - 0.0
07/03:30pm 25.8 13.5 10.0 37 8.8 SSW 65 82 35 44 1005.9 - 0.0
07/03:00pm 25.7 13.3 12.2 43 7.8 SSW 69 93 37 50 1005.4 1004.6 0.0

Other Formats:

Comma delimited format used in spreadsheet applications
http://www.bom.gov.au/fwo/IDW60801/IDW60801.95646.axf

JavaScript Object Notation format (JSON) in row-major order
http://www.bom.gov.au/fwo/IDW60801/IDW60801.95646.json